Weather reports worldwide

Advertisment
Hupsel aws, Netherlands (6283): temperature & dewpoint: 24.10.2020 12:00:00 - 30.10.2020 12:00:00 (CET)Hupsel aws, Netherlands (6283): temperature 5cm: 24.10.2020 12:00:00 - 30.10.2020 12:00:00 (CET)Hupsel aws, Netherlands (6283): wind speed & gusts: 24.10.2020 12:00:00 - 30.10.2020 12:00:00 (CET)Hupsel aws, Netherlands (6283): wind direction: 24.10.2020 12:00:00 - 30.10.2020 12:00:00 (CET)Hupsel aws, Netherlands (6283): precipitation: 24.10.2020 12:00:00 - 30.10.2020 12:00:00 (CET)
Date & Time tt [°C] td [°C] tt 5cm [°C] ff [km/h] ff [kn] fx [km/h] fx [kn] dd rr [mm]
30.10.2020 12:00:00 14,6 12,6 14,4 14 8 36 19 SW 0,0
30.10.2020 11:00:00 14,4 12,5 14,1 25 14 40 21 SW 0,0
30.10.2020 10:00:00 14,0 12,5 13,7 22 12 47 25 SW 0,0
30.10.2020 09:00:00 13,6 12,7 13,3 18 10 43 23 SW 0,0
30.10.2020 08:00:00 13,3 12,7 13,1 18 10 36 19 SW 0,1
30.10.2020 07:00:00 13,1 12,7 12,9 18 10 40 21 SW 0,3
30.10.2020 06:00:00 13,1 12,5 12,8 14 8 32 18 SW 0,1
30.10.2020 05:00:00 13,1 12,6 12,9 18 10 32 18 SW 0,1
30.10.2020 04:00:00 13,0 12,5 12,8 18 10 40 21 WSW 0,1
30.10.2020 03:00:00 13,2 12,4 12,9 22 12 40 21 WSW 0,1
30.10.2020 02:00:00 12,8 12,2 12,6 18 10 43 23 SW 0,0
30.10.2020 01:00:00 13,0 12,0 12,6 18 10 32 18 SW 0,0
30.10.2020 00:00:00 12,4 11,8 11,9 14 8 29 16 SW 0,0
29.10.2020 23:00:00 11,7 11,4 11,4 14 8 32 18 SW 0,5
29.10.2020 22:00:00 11,2 10,8 11,0 18 10 32 18 SSW 0,7
29.10.2020 21:00:00 10,9 10,5 10,7 14 8 29 16 SSW 1,4
29.10.2020 20:00:00 10,8 10,4 10,6 18 10 29 16 S 1,8
29.10.2020 19:00:00 10,6 10,1 10,3 14 8 25 14 S 1,0
29.10.2020 18:00:00 10,4 9,9 10,1 14 8 25 14 S 1,1
29.10.2020 17:00:00 10,3 9,4 10,1 14 8 22 12 SSW 1,0
29.10.2020 16:00:00 10,5 9,0 10,3 11 6 29 16 SSW 0,4
29.10.2020 15:00:00 11,2 8,3 11,2 14 8 32 18 SW 0,0
29.10.2020 14:00:00 11,3 7,9 11,3 18 10 32 18 SW 0,0
29.10.2020 13:00:00 11,5 7,4 11,4 22 12 32 18 SW 0,0
29.10.2020 12:00:00 11,3 7,8 11,8 18 10 - - WSW -
29.10.2020 11:00:00 10,7 7,5 10,9 18 10 - - SW -
29.10.2020 10:00:00 10,1 7,2 10,4 14 8 29 16 SW 0,0
29.10.2020 09:00:00 8,9 6,9 8,6 11 6 29 16 SW 0,0
29.10.2020 08:00:00 7,8 6,5 7,0 14 8 25 14 SW 0,0
29.10.2020 07:00:00 7,9 6,6 7,1 14 8 25 14 SW 0,0
29.10.2020 06:00:00 7,8 6,4 6,9 11 6 25 14 SW 0,0
29.10.2020 05:00:00 7,9 6,8 7,3 14 8 29 16 SW 0,0
29.10.2020 04:00:00 7,7 6,9 7,0 7 4 22 12 SW 0,2
29.10.2020 03:00:00 7,8 6,5 7,4 11 6 36 19 SW 1,9
29.10.2020 02:00:00 9,4 7,6 9,1 25 14 40 21 WSW 0,2
29.10.2020 01:00:00 9,6 8,0 9,2 14 8 29 16 SW 0,0
29.10.2020 00:00:00 9,5 8,0 9,1 14 8 29 16 SSW 0,0
28.10.2020 23:00:00 9,8 8,2 9,3 14 8 32 18 SSW 0,0
28.10.2020 22:00:00 10,4 9,1 9,9 18 10 32 18 S 0,7
28.10.2020 21:00:00 10,3 8,8 9,9 11 6 25 14 SSW 0,5
28.10.2020 20:00:00 10,8 8,6 10,1 18 10 32 18 SSW 0,3
28.10.2020 19:00:00 10,3 8,5 9,7 18 10 36 19 SSW 1,1
28.10.2020 18:00:00 8,8 8,1 8,2 7 4 29 16 S 2,5
28.10.2020 17:00:00 9,6 8,0 9,7 18 10 36 19 W 2,0
28.10.2020 16:00:00 13,2 7,2 12,6 22 12 36 19 SSW 0,0
28.10.2020 15:00:00 13,6 7,2 13,1 18 10 36 19 SSW 0,0
28.10.2020 14:00:00 13,0 8,1 12,7 18 10 40 21 SSW 0,4
28.10.2020 13:00:00 13,8 8,0 14,6 22 12 50 27 SSW 0,0
28.10.2020 12:00:00 13,0 8,7 13,0 22 12 43 23 SW 0,0
28.10.2020 11:00:00 12,6 9,1 12,1 18 10 36 19 SSW 0,0
28.10.2020 10:00:00 11,4 9,1 10,8 18 10 29 16 SSW 0,0
28.10.2020 09:00:00 10,3 9,3 9,9 11 6 18 10 S 0,0
28.10.2020 08:00:00 10,0 9,1 9,7 7 4 25 14 SSW 0,9
28.10.2020 07:00:00 9,9 9,4 9,4 11 6 22 12 S 0,0
28.10.2020 06:00:00 9,8 8,8 9,0 11 6 18 10 S 0,0
28.10.2020 05:00:00 10,0 9,1 9,0 11 6 18 10 SSW 0,0
28.10.2020 04:00:00 10,3 9,3 9,5 11 6 25 14 SSW 0,0
28.10.2020 03:00:00 11,4 9,7 10,6 14 8 36 19 SW 0,0
28.10.2020 02:00:00 11,5 10,2 10,9 18 10 43 23 SW 0,0
28.10.2020 01:00:00 10,9 10,3 10,3 18 10 36 19 SSW 0,9
28.10.2020 00:00:00 10,2 9,6 9,9 22 12 40 21 S 0,3
27.10.2020 23:00:00 10,1 8,7 9,8 25 14 50 27 S 0,4
27.10.2020 22:00:00 11,1 7,5 10,7 29 16 47 25 S 0,0
27.10.2020 21:00:00 10,5 7,3 10,1 29 16 50 27 S 0,0
27.10.2020 20:00:00 11,4 6,3 10,9 25 14 47 25 S 0,0
27.10.2020 19:00:00 11,2 6,0 10,6 22 12 43 23 S 0,0
27.10.2020 18:00:00 11,1 6,1 10,5 22 12 40 21 S 0,0
27.10.2020 17:00:00 11,1 6,3 10,6 22 12 43 23 S 0,0
27.10.2020 16:00:00 11,4 7,1 11,1 18 10 40 21 S 0,0
27.10.2020 15:00:00 11,5 6,9 11,3 18 10 32 18 SSW 0,0
27.10.2020 14:00:00 11,2 6,8 10,9 18 10 36 19 SSW 0,0
27.10.2020 13:00:00 11,0 7,2 11,0 18 10 32 18 SSW 0,0
27.10.2020 12:00:00 11,0 7,0 11,4 18 10 40 21 SSW 0,0
27.10.2020 11:00:00 10,6 7,0 11,0 22 12 40 21 SSW 0,0
27.10.2020 10:00:00 10,2 7,2 10,6 22 12 40 21 SSW 0,0
27.10.2020 09:00:00 9,0 7,1 8,8 18 10 32 18 SSW 0,0
27.10.2020 08:00:00 8,4 6,9 7,7 14 8 25 14 SSW 0,0
27.10.2020 07:00:00 8,3 6,8 7,7 14 8 29 16 SSW 0,0
27.10.2020 06:00:00 9,3 7,1 8,9 18 10 32 18 SSW 0,0
27.10.2020 05:00:00 9,5 7,3 9,2 18 10 29 16 SSW 0,0
27.10.2020 04:00:00 9,6 7,3 9,2 14 8 29 16 SSW 0,0
27.10.2020 03:00:00 9,4 6,9 8,6 14 8 29 16 SSW 0,0
27.10.2020 02:00:00 9,5 6,9 8,7 14 8 29 16 SSW 0,0
27.10.2020 01:00:00 10,0 7,1 9,3 14 8 32 18 SSW 0,0
27.10.2020 00:00:00 10,0 7,2 9,5 18 10 29 16 SSW 0,0
26.10.2020 23:00:00 9,7 7,0 8,8 14 8 29 16 S 0,0
26.10.2020 22:00:00 10,1 7,1 9,5 18 10 29 16 S 0,0
26.10.2020 21:00:00 9,9 6,9 9,2 18 10 29 16 S 0,0
26.10.2020 20:00:00 10,0 6,7 9,0 14 8 29 16 S 0,0
26.10.2020 19:00:00 10,1 6,7 9,1 14 8 29 16 S 0,0
26.10.2020 18:00:00 10,1 7,3 9,6 14 8 32 18 S 0,0
26.10.2020 17:00:00 10,5 7,2 10,0 14 8 32 18 S 0,0
26.10.2020 16:00:00 10,8 7,1 10,2 14 8 29 16 S 0,0
26.10.2020 15:00:00 11,4 6,5 11,2 14 8 32 18 SSW 0,0
26.10.2020 14:00:00 11,7 6,7 11,8 18 10 32 18 SSW 0,0
26.10.2020 13:00:00 11,9 6,7 11,5 18 10 36 19 SW 0,0
26.10.2020 12:00:00 11,2 6,8 11,0 18 10 40 21 SSW 0,0
26.10.2020 11:00:00 10,5 7,1 10,6 14 8 36 19 SSW 0,0
26.10.2020 10:00:00 10,1 7,5 9,8 18 10 32 18 SSW 0,0
26.10.2020 09:00:00 9,9 8,0 9,4 14 8 25 14 SSW 0,0
26.10.2020 08:00:00 9,4 8,0 8,6 11 6 25 14 S 0,0
26.10.2020 07:00:00 9,9 8,1 9,3 14 8 22 12 SSW 0,0
26.10.2020 06:00:00 9,8 8,4 8,7 11 6 18 10 S 0,0
26.10.2020 05:00:00 10,0 8,6 9,0 11 6 22 12 S 0,0
26.10.2020 04:00:00 10,1 9,1 9,5 11 6 18 10 S 0,0
26.10.2020 03:00:00 10,1 9,2 9,6 11 6 18 10 S 0,2
26.10.2020 02:00:00 10,3 9,2 9,9 11 6 25 14 S 0,1
26.10.2020 01:00:00 10,2 8,9 9,2 11 6 18 10 S 0,0
26.10.2020 00:00:00 10,1 8,8 9,1 11 6 22 12 S 0,0
25.10.2020 23:00:00 10,3 9,0 9,3 11 6 22 12 S 0,0
25.10.2020 22:00:00 10,6 9,0 9,7 11 6 22 12 S 0,0
25.10.2020 21:00:00 10,7 9,3 9,7 14 8 22 12 S 0,0
25.10.2020 20:00:00 11,3 9,6 10,4 11 6 18 10 SSW 0,0
25.10.2020 19:00:00 11,8 9,6 10,9 11 6 22 12 S 0,0
25.10.2020 18:00:00 12,1 10,1 11,5 14 8 22 12 S 0,0
25.10.2020 17:00:00 12,1 10,8 11,7 11 6 25 14 S 0,0
25.10.2020 16:00:00 12,4 10,9 12,1 14 8 25 14 S 0,0
25.10.2020 15:00:00 12,6 11,5 12,5 14 8 25 14 S 0,1
25.10.2020 14:00:00 12,3 11,3 12,2 14 8 29 16 S 0,3
25.10.2020 13:00:00 12,8 11,6 12,6 18 10 36 19 S 0,3
25.10.2020 12:00:00 13,1 11,1 12,8 18 10 29 16 SSW 0,0
25.10.2020 11:00:00 12,4 11,4 12,6 14 8 22 12 S 0,1
25.10.2020 10:00:00 11,6 10,3 11,4 11 6 22 12 SSW 0,6
25.10.2020 09:00:00 11,6 10,3 11,4 11 6 36 19 WSW 0,2
25.10.2020 08:00:00 15,1 10,4 14,7 22 12 47 25 SSW 0,0
25.10.2020 07:00:00 15,1 10,5 14,1 25 14 40 21 S 0,0
25.10.2020 06:00:00 14,6 10,7 14,0 22 12 43 23 S 0,0
25.10.2020 05:00:00 14,5 10,9 13,6 22 12 40 21 S 0,0
25.10.2020 04:00:00 15,1 11,0 14,6 22 12 36 19 S 0,0
25.10.2020 03:00:00 15,1 11,1 14,7 22 12 43 23 S 0,0
25.10.2020 02:00:00 15,4 11,0 14,8 25 14 47 25 S 0,0
25.10.2020 01:00:00 - - - - - - - - -
25.10.2020 00:00:00 14,8 11,1 14,1 25 14 43 23 S 0,0
24.10.2020 23:00:00 14,5 11,3 13,9 25 14 40 21 S 0,0
24.10.2020 22:00:00 14,2 11,2 13,4 22 12 40 21 S 0,0
24.10.2020 21:00:00 14,3 11,1 13,5 22 12 40 21 S 0,0
24.10.2020 20:00:00 14,3 11,1 13,4 22 12 36 19 S 0,0
24.10.2020 19:00:00 14,3 11,1 13,4 18 10 32 18 S 0,0
24.10.2020 18:00:00 13,9 11,4 13,0 18 10 32 18 S 0,0
24.10.2020 17:00:00 13,9 11,8 13,4 18 10 36 19 S 0,0
24.10.2020 16:00:00 14,1 11,6 13,8 22 12 40 21 S 0,0
24.10.2020 15:00:00 14,0 11,8 13,4 14 8 29 16 S 0,0
24.10.2020 14:00:00 13,8 11,9 13,9 18 10 36 19 SSW 0,1
24.10.2020 13:00:00 12,8 12,4 13,0 18 10 32 18 S 0,1
24.10.2020 12:00:00 13,0 11,7 12,9 18 10 36 19 SSW 0,0

tt = temperature
td = dewpoint
tt 5cm = temperature 5cm
ff = wind speed
fx = gusts
dd = wind direction
rr = precipitation

Next stations